Time;durP1;ratioP1;P1;durP2;ratioP2;P2;SDS_P1;SDS_P2;PMS_P1;PMS_P2;Temp;Humidity;BMP_temperature;BMP_pressure;BME280_temperature;BME280_humidity;BME280_pressure;Samples;Min_cycle;Max_cycle;Signal;HPM_P1;HPM_P2
2021/12/19 00:01:46;;;;;;;10.65;3.78;;;;;;;-4.07;100.00;97726.38;4845892;29;20060;-67
2021/12/19 00:04:40;;;;;;;9.00;3.53;;;;;;;-4.01;100.00;97720.69;4863489;29;20567;-68
2021/12/19 00:09:50;;;;;;;11.18;3.40;;;;;;;-4.08;100.00;97693.03;4862836;29;20065;-67
2021/12/19 00:12:16;;;;;;;11.65;3.45;;;;;;;-4.07;100.00;97679.72;4847449;29;20133;-68
2021/12/19 00:14:44;;;;;;;8.95;2.80;;;;;;;-4.03;100.00;97685.63;4847711;29;20159;-67
2021/12/19 00:17:10;;;;;;;8.73;2.80;;;;;;;-3.98;100.00;97684.38;4847146;29;20191;-67
2021/12/19 00:19:36;;;;;;;8.98;2.75;;;;;;;-4.01;100.00;97673.19;4862802;29;20065;-67
2021/12/19 00:22:02;;;;;;;8.57;2.70;;;;;;;-3.98;100.00;97660.63;4862669;29;20061;-65
2021/12/19 00:24:29;;;;;;;8.73;3.22;;;;;;;-4.02;100.00;97655.63;4832150;29;20148;-66
2021/12/19 00:26:58;;;;;;;9.13;2.50;;;;;;;-3.96;100.00;97657.84;4831988;29;20061;-66
2021/12/19 00:29:24;;;;;;;8.02;2.63;;;;;;;-4.00;100.00;97641.41;4831092;29;20053;-66
2021/12/19 00:31:50;;;;;;;7.60;2.47;;;;;;;-3.97;100.00;97648.25;4862512;29;20077;-66
2021/12/19 00:34:16;;;;;;;8.95;2.85;;;;;;;-3.94;100.00;97632.22;4832008;29;20110;-66
2021/12/19 00:36:42;;;;;;;8.18;3.10;;;;;;;-4.00;100.00;97614.16;4831645;29;20073;-67
2021/12/19 00:39:08;;;;;;;7.82;2.50;;;;;;;-3.91;100.00;97621.44;4831614;29;20121;-66
2021/12/19 00:41:34;;;;;;;9.48;2.50;;;;;;;-3.95;100.00;97607.63;4847105;29;20061;-66
2021/12/19 00:44:09;;;;;;;19.75;3.10;;;;;;;-3.96;100.00;97602.44;4862107;29;20133;-68
2021/12/19 00:46:53;;;;;;;6.03;2.00;;;;;;;-3.94;100.00;97595.25;4862164;29;20065;-66
2021/12/19 00:49:24;;;;;;;7.18;2.30;;;;;;;-3.94;100.00;97584.72;4862769;29;20198;-66
2021/12/19 00:51:50;;;;;;;8.00;2.83;;;;;;;-4.03;100.00;97556.34;4861958;29;20478;-67
2021/12/19 00:54:16;;;;;;;8.52;2.80;;;;;;;-3.96;100.00;97554.94;4861849;29;20220;-65
2021/12/19 00:56:44;;;;;;;8.05;2.40;;;;;;;-3.94;100.00;97542.47;4861846;29;20061;-65
2021/12/19 00:59:10;;;;;;;8.43;2.90;;;;;;;-4.01;100.00;97520.13;4862214;29;20073;-66
2021/12/19 01:01:37;;;;;;;8.38;3.30;;;;;;;-4.10;100.00;97511.09;4831096;29;20053;-66
2021/12/19 01:04:10;;;;;;;8.52;2.50;;;;;;;-4.09;100.00;97499.59;4858599;29;20084;-66
2021/12/19 01:06:37;;;;;;;7.93;2.38;;;;;;;-3.93;100.00;97517.78;4858922;29;20537;-66
2021/12/19 01:09:05;;;;;;;7.53;2.72;;;;;;;-3.93;100.00;97509.84;4859273;29;20102;-66
2021/12/19 01:11:31;;;;;;;6.97;2.20;;;;;;;-3.97;100.00;97485.50;4859334;29;20057;-66
2021/12/19 01:13:57;;;;;;;7.30;2.13;;;;;;;-3.92;100.00;97490.41;4828706;29;20434;-66
2021/12/19 01:16:23;;;;;;;8.57;2.20;;;;;;;-3.94;100.00;97474.72;4843789;29;20057;-65
2021/12/19 01:18:49;;;;;;;7.55;2.40;;;;;;;-3.94;100.00;97473.88;4858688;29;20069;-66
2021/12/19 01:21:15;;;;;;;9.13;3.22;;;;;;;-3.90;100.00;97470.03;4860334;29;20170;-67
2021/12/19 01:23:41;;;;;;;7.55;2.72;;;;;;;-3.96;100.00;97454.66;4828100;29;20093;-65
2021/12/19 01:26:07;;;;;;;9.15;2.58;;;;;;;-4.09;100.00;97411.69;4843465;29;20059;-66
2021/12/19 01:28:33;;;;;;;8.32;2.67;;;;;;;-3.88;100.00;97449.63;4860071;29;20061;-66
2021/12/19 01:30:59;;;;;;;7.47;2.22;;;;;;;-3.90;100.00;97443.66;4859901;29;20065;-64
2021/12/19 01:33:25;;;;;;;7.65;1.88;;;;;;;-3.97;100.00;97421.31;4858561;29;20148;-67
2021/12/19 01:35:51;;;;;;;8.52;2.60;;;;;;;-3.87;100.00;97417.03;4860054;29;20084;-65
2021/12/19 01:38:16;;;;;;;7.75;2.25;;;;;;;-4.04;100.00;97388.44;4859014;29;20061;-64
2021/12/19 01:40:42;;;;;;;7.43;2.10;;;;;;;-3.87;100.00;97406.47;4859082;29;20549;-65
2021/12/19 01:43:08;;;;;;;7.97;1.80;;;;;;;-3.88;100.00;97399.50;4843890;29;20497;-66
2021/12/19 01:45:38;;;;;;;7.55;2.15;;;;;;;-3.85;100.00;97391.34;4843623;29;20099;-66
2021/12/19 01:48:07;;;;;;;13.73;2.78;;;;;;;-3.84;100.00;97374.53;4843430;29;20054;-64
2021/12/19 01:50:33;;;;;;;6.35;1.63;;;;;;;-3.81;100.00;97374.31;4859860;29;20548;-66
2021/12/19 01:53:05;;;;;;;8.02;2.60;;;;;;;-3.83;100.00;97365.69;4843289;29;20057;-66
2021/12/19 01:55:31;;;;;;;7.57;2.22;;;;;;;-4.05;100.00;97319.00;4859971;29;20060;-66
2021/12/19 01:57:57;;;;;;;7.55;2.13;;;;;;;-3.98;100.00;97322.00;4843301;29;20061;-63
2021/12/19 02:00:30;;;;;;;8.30;3.03;;;;;;;-3.80;100.00;97340.84;4858509;29;20402;-67
2021/12/19 02:02:56;;;;;;;6.70;2.28;;;;;;;-3.86;100.00;97328.97;4859931;29;20513;-67
2021/12/19 02:05:23;;;;;;;6.90;2.13;;;;;;;-3.83;100.00;97322.63;4859467;29;20057;-66
2021/12/19 02:07:50;;;;;;;8.27;2.30;;;;;;;-3.90;100.00;97301.16;4858439;29;20479;-66
2021/12/19 02:10:21;;;;;;;8.63;2.40;;;;;;;-3.78;100.00;97309.91;4859154;29;20085;-66
2021/12/19 02:12:48;;;;;;;8.60;2.40;;;;;;;-3.86;100.00;97286.75;4858185;29;20421;-66
2021/12/19 02:15:18;;;;;;;7.00;2.08;;;;;;;-3.85;100.00;97272.59;4842775;29;20132;-65
2021/12/19 02:17:45;;;;;;;7.53;2.10;;;;;;;-3.80;100.00;97270.44;4857891;29;20057;-65
2021/12/19 02:20:12;;;;;;;8.30;2.38;;;;;;;-3.77;100.00;97264.88;4842763;29;20088;-64
2021/12/19 02:22:38;;;;;;;8.05;2.25;;;;;;;-3.75;100.00;97251.59;4842573;29;20540;-66
2021/12/19 02:25:04;;;;;;;7.95;2.53;;;;;;;-3.92;100.00;97223.88;4857981;29;20490;-64
2021/12/19 02:27:30;;;;;;;7.90;2.25;;;;;;;-3.76;100.00;97240.19;4842475;29;20046;-65
2021/12/19 02:29:56;;;;;;;8.27;2.63;;;;;;;-3.77;100.00;97232.38;4859079;29;20105;-66
2021/12/19 02:32:24;;;;;;;6.93;2.35;;;;;;;-3.99;100.00;97185.75;4857509;29;20168;-64
2021/12/19 02:34:52;;;;;;;6.47;2.00;;;;;;;-3.77;100.00;97206.00;4827636;29;20152;-66
2021/12/19 02:50:35;;;;;;;7.85;2.40;;;;;;;-3.96;100.00;97122.19;4857624;29;20065;-64
2021/12/19 02:53:01;;;;;;;8.00;2.20;;;;;;;-3.81;100.00;97146.50;4858279;29;20064;-65
2021/12/19 02:55:27;;;;;;;9.05;2.42;;;;;;;-3.76;100.00;97139.91;4858535;29;20145;-64
2021/12/19 02:57:53;;;;;;;7.03;1.95;;;;;;;-3.95;100.00;97105.38;4841452;29;20065;-65
2021/12/19 03:00:23;;;;;;;7.43;2.50;;;;;;;-3.73;100.00;97138.78;4858257;29;20411;-65
2021/12/19 03:02:49;;;;;;;7.88;2.40;;;;;;;-3.69;100.00;97133.16;4857303;29;20057;-66
2021/12/19 03:05:15;;;;;;;7.72;1.95;;;;;;;-3.70;100.00;97117.44;4856936;29;20061;-65
2021/12/19 03:07:43;;;;;;;6.68;2.08;;;;;;;-3.68;100.00;97111.06;4858470;29;20049;-67
2021/12/19 03:13:16;;;;;;;8.95;2.53;;;;;;;-3.66;100.00;97098.59;4856805;29;20053;-65
2021/12/19 03:18:13;;;;;;;7.82;2.33;;;;;;;-3.64;100.00;97080.81;4857017;29;20057;-65
2021/12/19 03:20:42;;;;;;;7.10;2.38;;;;;;;-3.62;100.00;97078.03;4856931;29;20543;-67
2021/12/19 03:23:10;;;;;;;7.68;2.15;;;;;;;-3.58;100.00;97078.63;4858345;29;20543;-66
2021/12/19 03:25:36;;;;;;;7.15;1.98;;;;;;;-3.58;100.00;97068.06;4858221;29;20049;-65
2021/12/19 03:28:05;;;;;;;7.35;2.00;;;;;;;-3.54;100.00;97053.66;4856599;29;20060;-65
2021/12/19 03:30:31;;;;;;;7.43;1.95;;;;;;;-3.51;100.00;97063.94;4856527;29;20056;-66
2021/12/19 03:32:57;;;;;;;7.68;2.58;;;;;;;-3.54;100.00;97056.31;4858154;29;20065;-65
2021/12/19 03:35:29;;;;;;;8.80;2.67;;;;;;;-3.49;100.00;97052.28;4858003;29;20057;-67
2021/12/19 03:37:55;;;;;;;7.82;2.20;;;;;;;-3.51;100.00;97045.47;4856852;29;20478;-66
2021/12/19 03:40:34;;;;;;;8.65;2.30;;;;;;;-3.46;100.00;97041.47;4841268;29;20064;-66
2021/12/19 03:43:09;;;;;;;7.03;1.70;;;;;;;-3.48;100.00;97021.44;4843269;29;20152;-66
2021/12/19 03:45:36;;;;;;;7.35;1.80;;;;;;;-3.54;100.00;97011.41;4856556;29;20057;-66
2021/12/19 03:48:04;;;;;;;8.10;2.00;;;;;;;-3.71;100.00;96967.94;4841418;29;20065;-66
2021/12/19 03:50:33;;;;;;;8.55;2.47;;;;;;;-3.46;100.00;97003.69;4858188;29;20061;-66
2021/12/19 03:52:59;;;;;;;8.98;2.40;;;;;;;-3.47;100.00;96992.28;4841410;29;20061;-65
2021/12/19 03:55:26;;;;;;;7.65;2.00;;;;;;;-3.44;100.00;96993.81;4856383;29;20095;-65
2021/12/19 03:57:52;;;;;;;8.15;2.00;;;;;;;-3.40;100.00;96992.56;4856182;29;20082;-64
2021/12/19 04:00:25;;;;;;;9.35;2.50;;;;;;;-3.40;100.00;96982.88;4826016;29;20065;-67
2021/12/19 04:02:56;;;;;;;6.93;2.00;;;;;;;-3.44;100.00;96968.25;4857904;29;20148;-65
2021/12/19 04:05:22;;;;;;;7.05;1.90;;;;;;;-3.41;100.00;96964.50;4856317;29;20054;-66
2021/12/19 04:07:48;;;;;;;6.60;2.05;;;;;;;-3.57;100.00;96938.56;4840893;29;20054;-65
2021/12/19 04:10:14;;;;;;;8.65;2.90;;;;;;;-3.39;100.00;96967.84;4856235;29;20076;-65
2021/12/19 04:12:42;;;;;;;8.30;2.55;;;;;;;-3.40;100.00;96952.97;4841069;29;20467;-66
2021/12/19 04:15:09;;;;;;;8.80;2.08;;;;;;;-3.37;100.00;96946.59;4856256;29;20057;-64
2021/12/19 04:17:35;;;;;;;7.30;2.38;;;;;;;-3.50;100.00;96928.34;4856046;29;20132;-65
2021/12/19 04:20:00;;;;;;;6.63;2.00;;;;;;;-3.47;100.00;96915.69;4856274;29;20081;-65
2021/12/19 04:22:26;;;;;;;8.30;2.25;;;;;;;-3.37;100.00;96928.09;4856017;29;20088;-66
2021/12/19 04:24:53;;;;;;;9.13;2.38;;;;;;;-3.40;100.00;96910.72;4855867;29;20254;-65
2021/12/19 04:27:19;;;;;;;7.13;1.90;;;;;;;-3.35;100.00;96916.44;4856201;29;20549;-66
2021/12/19 04:29:45;;;;;;;7.72;2.00;;;;;;;-3.32;100.00;96904.78;4857616;29;20053;-68
2021/12/19 04:32:12;;;;;;;7.07;1.92;;;;;;;-3.37;100.00;96896.41;4841210;29;20420;-65
2021/12/19 04:34:38;;;;;;;7.45;2.28;;;;;;;-3.34;100.00;96899.63;4855897;29;20438;-67
2021/12/19 04:37:22;;;;;;;7.55;2.50;;;;;;;-3.31;100.00;96901.16;4856040;29;20116;-67
2021/12/19 04:39:56;;;;;;;7.03;1.92;;;;;;;-3.28;100.00;96893.81;4859222;29;20102;-66
2021/12/19 04:56:14;;;;;;;7.30;1.98;;;;;;;-3.27;100.00;96866.44;4859333;29;20088;-65
2021/12/19 04:58:51;;;;;;;7.28;2.10;;;;;;;-3.40;100.00;96828.84;4860582;29;20550;-68
2021/12/19 05:04:14;;;;;;;6.50;1.73;;;;;;;-3.21;100.00;96844.75;4859227;29;20085;-66
2021/12/19 05:14:39;;;;;;;7.85;2.40;;;;;;;-3.21;100.00;96818.34;4860132;29;20057;-65
2021/12/19 05:17:09;;;;;;;6.63;2.00;;;;;;;-3.18;100.00;96817.22;4858458;29;20057;-67
2021/12/19 05:20:24;;;;;;;8.05;2.25;;;;;;;-3.21;100.00;96813.06;4858870;29;20049;-67
2021/12/19 05:22:26;;;;;;;7.03;2.10;;;;;;;-3.19;100.00;96800.53;4845714;29;20416;-66
2021/12/19 05:25:08;;;;;;;7.35;2.10;;;;;;;-3.13;100.00;96798.34;4858689;29;20057;-67
2021/12/19 05:27:34;;;;;;;8.65;2.42;;;;;;;-3.26;100.00;96788.00;4859024;29;20053;-67
2021/12/19 05:29:59;;;;;;;6.80;2.13;;;;;;;-3.36;100.00;96761.59;4858876;29;20433;-65
2021/12/19 05:32:25;;;;;;;7.85;2.40;;;;;;;-3.24;100.00;96781.63;4858703;29;20633;-67
2021/12/19 05:34:51;;;;;;;7.68;2.28;;;;;;;-3.17;100.00;96788.03;4858330;29;20372;-67
2021/12/19 05:45:29;;;;;;;6.93;2.13;;;;;;;-3.12;100.00;96774.41;4858794;29;20454;-67
2021/12/19 05:47:55;;;;;;;8.40;2.30;;;;;;;-3.23;100.00;96762.16;4857874;29;20057;-68
2021/12/19 05:50:23;;;;;;;7.60;2.30;;;;;;;-3.06;100.00;96778.31;4858230;29;20109;-67
2021/12/19 05:52:49;;;;;;;11.20;2.50;;;;;;;-3.08;100.00;96764.41;4859827;29;20116;-67
2021/12/19 05:55:16;;;;;;;8.35;2.45;;;;;;;-3.03;100.00;96762.22;4858264;29;20430;-68
2021/12/19 05:57:42;;;;;;;9.05;2.30;;;;;;;-3.04;100.00;96749.94;4860061;29;20160;-65
2021/12/19 06:00:12;;;;;;;8.05;2.38;;;;;;;-3.09;100.00;96736.31;4858253;29;20053;-67
2021/12/19 06:02:40;;;;;;;7.18;2.33;;;;;;;-3.06;100.00;96746.63;4858556;29;20510;-67
2021/12/19 06:05:07;;;;;;;8.75;2.90;;;;;;;-3.03;100.00;96741.06;4858458;29;20057;-65
2021/12/19 06:07:34;;;;;;;9.65;2.60;;;;;;;-2.98;100.00;96741.47;4858775;29;20096;-67
2021/12/19 06:09:59;;;;;;;12.15;2.78;;;;;;;-3.02;100.00;96732.16;4859860;29;20061;-68
2021/12/19 06:12:25;;;;;;;8.55;2.50;;;;;;;-2.97;100.00;96732.56;4843197;29;20053;-66
2021/12/19 06:14:52;;;;;;;14.13;2.85;;;;;;;-3.05;100.00;96713.94;4858493;29;20053;-67
2021/12/19 06:17:18;;;;;;;7.35;2.67;;;;;;;-2.95;100.00;96717.41;4858127;29;20061;-67
2021/12/19 06:19:44;;;;;;;7.30;2.50;;;;;;;-2.96;100.00;96718.41;4857826;29;20160;-67
2021/12/19 06:22:10;;;;;;;8.05;2.70;;;;;;;-2.96;100.00;96710.47;4859309;29;20218;-68
2021/12/19 06:24:36;;;;;;;9.20;2.85;;;;;;;-2.95;100.00;96704.19;4842644;29;20049;-67
2021/12/19 06:27:03;;;;;;;10.98;2.80;;;;;;;-2.96;100.00;96694.63;4859460;29;20494;-66
2021/12/19 06:29:30;;;;;;;9.43;3.05;;;;;;;-2.92;100.00;96701.28;4842662;29;20061;-67
2021/12/19 06:31:56;;;;;;;7.55;2.33;;;;;;;-2.92;100.00;96693.34;4853549;29;20106;-67
2021/12/19 06:34:23;;;;;;;11.77;3.15;;;;;;;-2.86;100.00;96691.94;4839622;29;20113;-68
2021/12/19 06:36:51;;;;;;;8.23;3.00;;;;;;;-2.87;100.00;96691.13;4824384;29;20092;-68
2021/12/19 06:39:18;;;;;;;10.15;3.00;;;;;;;-2.84;100.00;96685.56;4839683;29;20558;-67
2021/12/19 06:41:44;;;;;;;8.85;2.78;;;;;;;-2.89;100.00;96674.53;4839474;29;20411;-68
2021/12/19 06:44:10;;;;;;;8.43;2.53;;;;;;;-2.85;100.00;96686.53;4839513;29;20601;-67
2021/12/19 06:46:36;;;;;;;8.30;2.55;;;;;;;-2.98;100.00;96638.41;4839338;29;20384;-67
2021/12/19 06:49:02;;;;;;;9.18;2.88;;;;;;;-2.84;100.00;96651.19;4839521;29;20058;-67
2021/12/19 06:51:28;;;;;;;9.60;2.58;;;;;;;-2.68;100.00;96666.44;4839095;29;20050;-66
2021/12/19 06:53:53;;;;;;;8.45;2.83;;;;;;;-2.88;100.00;96628.66;4823991;29;20073;-68
2021/12/19 06:56:19;;;;;;;8.00;2.47;;;;;;;-2.79;100.00;96641.00;4839170;29;20531;-67
2021/12/19 06:58:45;;;;;;;7.68;2.65;;;;;;;-2.63;100.00;96650.16;4840156;29;20519;-68
2021/12/19 07:01:11;;;;;;;9.25;3.00;;;;;;;-2.64;100.00;96651.13;4835571;29;20053;-68
2021/12/19 07:03:37;;;;;;;9.13;2.80;;;;;;;-2.53;100.00;96643.03;4825569;29;20407;-68
2021/12/19 07:06:03;;;;;;;8.73;3.05;;;;;;;-2.55;100.00;96645.00;4854245;29;20114;-68
2021/12/19 07:08:29;;;;;;;9.20;2.97;;;;;;;-2.68;100.00;96624.97;4822056;29;20221;-68
2021/12/19 07:10:55;;;;;;;10.07;2.97;;;;;;;-2.65;100.00;96633.63;4813619;29;20072;-71
2021/12/19 07:13:21;;;;;;;8.82;2.85;;;;;;;-2.62;100.00;96617.47;4850671;29;20629;-70
2021/12/19 07:15:49;;;;;;;8.82;3.33;;;;;;;-2.53;100.00;96632.44;4838125;29;20049;-67
2021/12/19 07:18:15;;;;;;;8.85;2.55;;;;;;;-2.52;100.00;96632.31;4839636;29;20144;-67
2021/12/19 07:20:42;;;;;;;9.15;3.30;;;;;;;-2.48;100.00;96635.50;4863521;29;20220;-67
2021/12/19 07:23:11;;;;;;;9.30;3.42;;;;;;;-2.59;100.00;96612.72;4819800;29;20434;-68
2021/12/19 07:25:37;;;;;;;10.07;3.22;;;;;;;-2.49;100.00;96628.53;4841629;29;20058;-68
2021/12/19 07:28:03;;;;;;;15.30;3.85;;;;;;;-2.47;100.00;96621.31;4856143;29;20064;-70
2021/12/19 07:30:31;;;;;;;8.73;3.28;;;;;;;-2.70;100.00;96578.53;4857946;29;20080;-72
2021/12/19 07:32:57;;;;;;;12.45;4.35;;;;;;;-2.42;100.00;96614.59;4852997;29;20172;-67
2021/12/19 07:35:24;;;;;;;11.48;5.18;;;;;;;-2.46;100.00;96604.44;4824457;29;20104;-67
2021/12/19 07:37:52;;;;;;;14.82;4.78;;;;;;;-2.47;100.00;96592.22;4848563;29;20053;-67
2021/12/19 07:40:20;;;;;;;14.23;3.85;;;;;;;-2.32;100.00;96608.44;4839498;29;20165;-73
2021/12/19 07:43:10;;;;;;;11.60;4.20;;;;;;;-2.21;100.00;96606.41;4858701;29;20068;-71
2021/12/19 07:45:37;;;;;;;9.93;4.05;;;;;;;-2.38;100.00;96561.41;4827328;29;20140;-68
2021/12/19 07:48:04;;;;;;;13.57;4.60;;;;;;;-2.12;100.00;96593.28;4815026;29;20064;-68
2021/12/19 07:50:31;;;;;;;12.55;3.67;;;;;;;-2.17;100.00;96590.25;4839531;29;20466;-67
2021/12/19 07:52:56;;;;;;;12.88;4.00;;;;;;;-2.20;100.00;96586.91;4863702;29;20123;-69
2021/12/19 07:55:24;;;;;;;11.93;4.10;;;;;;;-2.15;100.00;96578.56;4839766;29;20054;-72
2021/12/19 07:57:50;;;;;;;14.50;3.83;;;;;;;-2.12;100.00;96567.69;4856631;29;20495;-71
2021/12/19 08:00:16;;;;;;;10.48;3.72;;;;;;;-1.95;100.00;96584.56;4853996;29;20101;-67
2021/12/19 08:02:45;;;;;;;12.55;4.28;;;;;;;-1.89;100.00;96576.03;4863148;29;20054;-72
2021/12/19 08:05:13;;;;;;;16.45;3.85;;;;;;;-1.85;100.00;96580.03;4846694;29;20092;-67
2021/12/19 08:07:40;;;;;;;15.18;3.90;;;;;;;-1.91;100.00;96588.56;4858540;29;20049;-68
2021/12/19 08:12:36;;;;;;;10.23;3.22;;;;;;;-1.82;100.00;96574.44;4847651;29;20463;-68
2021/12/19 08:15:06;;;;;;;11.35;3.55;;;;;;;-1.80;100.00;96575.09;4857894;29;20129;-68
2021/12/19 08:17:32;;;;;;;11.00;3.70;;;;;;;-1.93;100.00;96556.13;4837083;29;20201;-68
2021/12/19 08:19:58;;;;;;;11.93;3.65;;;;;;;-1.79;100.00;96568.84;4840661;29;20145;-68
2021/12/19 08:22:26;;;;;;;11.57;3.67;;;;;;;-1.84;100.00;96547.28;4858587;29;20116;-68
2021/12/19 08:24:52;;;;;;;11.98;4.07;;;;;;;-1.75;100.00;96564.91;4844001;29;20529;-68
2021/12/19 08:27:18;;;;;;;10.80;3.42;;;;;;;-1.73;100.00;96564.75;4826470;29;20053;-68
2021/12/19 08:29:44;;;;;;;13.07;3.80;;;;;;;-1.73;100.00;96548.88;4841646;29;20062;-68
2021/12/19 08:32:10;;;;;;;10.13;3.35;;;;;;;-1.67;100.00;96535.03;4842751;29;20149;-68
2021/12/19 08:34:36;;;;;;;10.20;3.33;;;;;;;-1.76;100.00;96534.09;4854676;29;20149;-68
2021/12/19 08:37:02;;;;;;;10.88;3.85;;;;;;;-1.81;100.00;96523.16;4837829;29;20109;-68
2021/12/19 08:39:29;;;;;;;10.25;3.53;;;;;;;-1.93;100.00;96508.47;4833841;29;20136;-68
2021/12/19 08:41:54;;;;;;;10.40;3.35;;;;;;;-1.61;100.00;96533.56;4844103;29;20054;-68
2021/12/19 08:44:21;;;;;;;13.75;3.55;;;;;;;-1.70;100.00;96511.50;4840019;29;20065;-68
2021/12/19 08:46:47;;;;;;;14.00;4.25;;;;;;;-1.62;100.00;96529.28;4827051;29;20049;-68
2021/12/19 08:49:13;;;;;;;11.27;4.00;;;;;;;-1.59;100.00;96531.63;4826511;29;20072;-68
2021/12/19 08:51:39;;;;;;;16.60;3.33;;;;;;;-1.61;100.00;96515.03;4833607;29;20114;-68
2021/12/19 08:54:07;;;;;;;12.02;3.85;;;;;;;-1.40;100.00;96510.25;4839213;29;20053;-67
2021/12/19 08:56:33;;;;;;;9.82;3.33;;;;;;;-1.59;100.00;96474.19;4843414;29;20114;-68
2021/12/19 08:59:00;;;;;;;15.02;3.55;;;;;;;-1.37;100.00;96512.59;4810910;29;20460;-68
2021/12/19 09:01:27;;;;;;;12.98;3.70;;;;;;;-1.22;100.00;96507.56;4860981;29;20506;-68
2021/12/19 09:03:52;;;;;;;12.38;3.72;;;;;;;-1.24;100.00;96514.84;4839348;29;20098;-67
2021/12/19 09:06:19;;;;;;;9.80;3.45;;;;;;;-1.28;100.00;96508.16;4853235;29;20053;-67
2021/12/19 09:08:45;;;;;;;10.55;3.97;;;;;;;-1.41;100.00;96497.16;4834627;29;20057;-67
2021/12/19 09:11:11;;;;;;;10.85;4.68;;;;;;;-1.31;100.00;96516.44;4829173;29;20372;-68
2021/12/19 09:13:37;;;;;;;12.25;3.70;;;;;;;-1.38;100.00;96481.78;4855179;29;20060;-67
2021/12/19 09:16:03;;;;;;;12.48;4.13;;;;;;;-1.33;100.00;96489.25;4833491;29;20058;-68
2021/12/19 09:18:29;;;;;;;14.25;4.50;;;;;;;-1.27;100.00;96505.38;4840608;29;20122;-68
2021/12/19 09:20:55;;;;;;;13.40;4.30;;;;;;;-1.28;100.00;96494.91;4847253;29;20066;-68
2021/12/19 09:23:21;;;;;;;13.15;5.03;;;;;;;-1.30;100.00;96500.38;4843811;29;20085;-68
2021/12/19 09:25:47;;;;;;;12.52;4.20;;;;;;;-1.41;100.00;96482.09;4833188;29;20098;-68
2021/12/19 09:28:13;;;;;;;15.15;5.43;;;;;;;-1.52;100.00;96467.28;4846694;29;20418;-68
2021/12/19 09:30:40;;;;;;;14.38;4.35;;;;;;;-1.27;100.00;96500.06;4825808;29;20194;-69
2021/12/19 09:33:06;;;;;;;13.23;4.97;;;;;;;-1.28;100.00;96498.44;4856789;29;20058;-68
2021/12/19 09:35:32;;;;;;;12.77;4.68;;;;;;;-1.19;100.00;96485.22;4833049;29;20426;-69
2021/12/19 09:38:04;;;;;;;10.38;3.65;;;;;;;-1.11;100.00;96486.09;4840245;29;20065;-68
2021/12/19 09:40:35;;;;;;;13.38;4.45;;;;;;;-1.11;100.00;96482.63;4840369;29;20053;-68
2021/12/19 09:43:10;;;;;;;10.68;4.20;;;;;;;-1.18;100.00;96449.78;4840284;29;20165;-68
2021/12/19 09:45:37;;;;;;;12.60;4.00;;;;;;;-1.03;100.00;96445.53;4836572;29;20136;-70
2021/12/19 09:48:03;;;;;;;16.15;4.60;;;;;;;-0.88;100.00;96469.63;4815736;29;20611;-72
2021/12/19 09:50:30;;;;;;;17.08;4.57;;;;;;;-0.84;100.00;96470.97;4866162;29;20061;-71
2021/12/19 09:52:59;;;;;;;12.80;4.38;;;;;;;-0.80;100.00;96465.22;4843199;29;20125;-74
2021/12/19 09:55:25;;;;;;;11.48;4.10;;;;;;;-0.88;100.00;96451.91;4853255;29;20061;-70
2021/12/19 09:57:53;;;;;;;14.07;4.07;;;;;;;-0.91;100.00;96451.41;4839394;29;20069;-75
2021/12/19 10:00:22;;;;;;;16.80;5.53;;;;;;;-0.86;100.00;96455.25;4850496;29;20057;-71
2021/12/19 10:02:48;;;;;;;11.55;3.67;;;;;;;-0.88;100.00;96457.22;4854221;29;20068;-77
2021/12/19 10:05:26;;;;;;;13.00;4.63;;;;;;;-1.01;100.00;96414.41;4817055;29;20062;-69
2021/12/19 10:07:55;;;;;;;27.05;4.75;;;;;;;-0.97;100.00;96431.66;4851450;29;20101;-70
2021/12/19 10:10:58;;;;;;;13.38;4.10;;;;;;;-0.73;100.00;96437.06;4855157;29;20095;-70
2021/12/19 10:13:32;;;;;;;12.75;4.75;;;;;;;-0.80;100.00;96422.78;4839957;29;20066;-71
2021/12/19 10:15:58;;;;;;;13.77;4.38;;;;;;;-0.71;100.00;96422.81;4840031;29;20503;-69
2021/12/19 10:18:24;;;;;;;16.10;4.82;;;;;;;-0.68;100.00;96417.19;4826568;29;20172;-70
2021/12/19 10:20:59;;;;;;;12.63;4.75;;;;;;;-0.71;100.00;96414.84;4827045;29;20053;-75
2021/12/19 10:23:28;;;;;;;55.67;26.25;;;;;;;-0.73;100.00;96409.72;4855345;29;20133;-75
2021/12/19 10:25:59;;;;;;;14.85;5.22;;;;;;;-1.11;100.00;96358.03;4863763;29;20399;-74
2021/12/19 10:28:25;;;;;;;;;;;;;;;-0.74;100.00;96410.69;4860738;29;20113;-72
2021/12/19 10:30:51;;;;;;;19.73;6.90;;;;;;;-0.78;100.00;96399.56;4843448;29;20519;-74
2021/12/19 10:33:25;;;;;;;18.42;5.60;;;;;;;-0.70;100.00;96392.63;4826189;29;20088;-73
2021/12/19 10:36:06;;;;;;;19.20;6.32;;;;;;;-0.75;100.00;96370.09;4830637;29;20480;-72
2021/12/19 10:38:46;;;;;;;16.05;5.97;;;;;;;-0.60;100.00;96402.13;4814399;29;20058;-73
2021/12/19 10:41:15;;;;;;;17.00;5.75;;;;;;;-0.59;100.00;96387.03;4810641;29;20144;-72
2021/12/19 10:44:00;;;;;;;21.30;5.97;;;;;;;-0.51;100.00;96398.50;4814368;29;20058;-73
2021/12/19 10:46:34;;;;;;;18.83;6.30;;;;;;;-0.52;100.00;96388.03;4813729;29;20400;-71
2021/12/19 10:49:02;;;;;;;18.60;6.00;;;;;;;-0.46;100.00;96405.97;4841789;29;20065;-71
2021/12/19 10:51:30;;;;;;;15.05;5.85;;;;;;;-0.64;100.00;96389.34;4826311;29;20137;-72
2021/12/19 10:54:00;;;;;;;13.23;4.65;;;;;;;-0.63;100.00;96393.66;4810067;29;20467;-70
2021/12/19 10:56:36;;;;;;;16.00;5.03;;;;;;;-0.56;100.00;96397.31;4841409;29;20150;-71
2021/12/19 10:59:08;;;;;;;14.77;4.90;;;;;;;-0.46;100.00;96392.72;4841544;29;20061;-70
2021/12/19 11:01:37;;;;;;;11.43;4.40;;;;;;;-0.46;100.00;96382.09;4840115;29;20089;-71
2021/12/19 11:04:18;;;;;;;16.10;4.57;;;;;;;-0.47;100.00;96379.63;4825945;29;20156;-71
2021/12/19 11:06:48;;;;;;;11.07;3.67;;;;;;;-0.53;100.00;96379.25;4839956;29;20065;-71
2021/12/19 11:09:20;;;;;;;12.65;4.43;;;;;;;-0.38;100.00;96405.97;4840722;29;20416;-71
2021/12/19 11:11:56;;;;;;;18.45;5.60;;;;;;;-0.39;100.00;96396.38;4824999;29;20140;-70
2021/12/19 11:14:25;;;;;;;11.85;4.40;;;;;;;-0.38;100.00;96405.97;4825934;29;20064;-69
2021/12/19 11:16:56;;;;;;;15.90;5.38;;;;;;;-0.52;100.00;96377.44;4824857;29;20105;-70
2021/12/19 11:19:23;;;;;;;12.95;5.43;;;;;;;-0.43;100.00;96397.69;4839460;29;20073;-70
2021/12/19 11:21:49;;;;;;;16.98;5.05;;;;;;;-0.50;100.00;96386.06;4825495;29;20114;-70
2021/12/19 11:24:17;;;;;;;13.52;4.70;;;;;;;-0.52;100.00;96382.75;4809658;29;20460;-70
2021/12/19 11:26:44;;;;;;;13.52;4.60;;;;;;;-0.47;100.00;96383.09;4839131;29;20134;-70
2021/12/19 11:29:17;;;;;;;16.00;4.82;;;;;;;-0.63;100.00;96348.56;4825503;29;20053;-69
2021/12/19 11:31:46;;;;;;;19.05;4.40;;;;;;;-0.36;100.00;96382.78;4824813;29;20103;-69
2021/12/19 11:34:26;;;;;;;11.82;4.07;;;;;;;-0.58;100.00;96359.53;4824951;29;20058;-70
2021/12/19 11:36:56;;;;;;;15.82;4.32;;;;;;;-0.47;100.00;96383.09;4824700;29;20190;-70
2021/12/19 11:39:32;;;;;;;;;;;;;;;-0.34;100.00;96391.41;4840295;29;20544;-69
2021/12/19 11:42:10;;;;;;;11.18;4.35;;;;;;;-0.26;100.00;96393.22;4809223;29;19931;-70
2021/12/19 11:45:13;;;;;;;15.70;4.38;;;;;;;-0.39;100.00;96372.50;4840458;29;20062;-70
2021/12/19 11:47:52;;;;;;;15.10;3.47;;;;;;;-0.47;100.00;96364.53;4822516;29;20085;-70
2021/12/19 11:50:26;;;;;;;15.45;3.92;;;;;;;-0.38;100.00;96386.59;4810625;29;20058;-71
2021/12/19 11:53:08;;;;;;;12.13;3.67;;;;;;;-0.50;100.00;96365.69;4811361;29;20058;-71
2021/12/19 11:55:36;;;;;;;13.35;4.43;;;;;;;-0.68;100.00;96345.59;4841820;29;20066;-71
2021/12/19 11:58:08;;;;;;;15.10;3.50;;;;;;;-0.75;100.00;96330.31;4826658;29;20144;-71
2021/12/19 12:00:40;;;;;;;12.90;3.80;;;;;;;-0.34;100.00;96385.25;4841666;29;20526;-71
2021/12/19 12:03:12;;;;;;;14.35;3.95;;;;;;;-0.63;100.00;96354.69;4842497;29;20054;-71
2021/12/19 12:05:46;;;;;;;12.85;3.65;;;;;;;-0.43;100.00;96376.47;4826664;29;20089;-72
2021/12/19 12:08:17;;;;;;;9.35;2.90;;;;;;;-0.57;100.00;96364.66;4842220;29;20111;-71
2021/12/19 12:10:53;;;;;;;17.20;3.72;;;;;;;-0.38;100.00;96395.38;4841649;29;20145;-71
2021/12/19 12:13:36;;;;;;;12.55;4.00;;;;;;;-0.33;100.00;96386.91;4841555;29;20455;-71
2021/12/19 12:16:19;;;;;;;15.38;3.85;;;;;;;-0.33;100.00;96377.16;4811241;29;20080;-70
2021/12/19 12:18:54;;;;;;;15.90;3.70;;;;;;;-0.38;100.00;96383.94;4840281;29;20062;-71
2021/12/19 12:21:27;;;;;;;13.85;3.45;;;;;;;-0.42;100.00;96377.28;4826373;29;20065;-71
2021/12/19 12:24:04;;;;;;;12.10;3.28;;;;;;;-0.39;100.00;96383.09;4841802;29;20062;-71
2021/12/19 12:27:04;;;;;;;13.73;3.70;;;;;;;-0.46;100.00;96371.47;4811601;29;20057;-71